Falmouth, Maine
Current Conditions -  °F | °C
As of 10:51 AM on Thursday 23 Oct 2014 (Local Time) from KPWM Reporting Station
Light Rain Light Rain  
Wind Chill: 51°   Ceiling: 1200
Heat Index: 51°   Visibility: 4mi
Dew Point: 48°   Wind: 21mph
Humidity: 89%   Direction: 30°NNE
Pressure: 29.76"   Gusts: 33mph
Location:  43.73°N, 70.24°W
Report Text: KPWM 231451Z 03018G29KT 4SM -RA BR OVC012 11/09 A2976 RMK AO2 PK WND 03030/1437 SLP078 P0004 60015 T01060089 56004
Loading
Personal Weather Stations






























Interactive Weather Map New forecast layout! Learn more

10-Day Weather Forecast

Advertisements
Track Severe Weather on mobile